sensor_id;sensor_type;location;lat;lon;timestamp;P1;durP1;ratioP1;P2;durP2;ratioP2
7211;SDS011;3647;48.792;9.802;2024-03-07T06:09:35;40.33;;;19.53;;
7211;SDS011;3647;48.792;9.802;2024-03-07T06:12:02;30.37;;;17.33;;
7211;SDS011;3647;48.792;9.802;2024-03-07T06:14:29;37.40;;;17.83;;
7211;SDS011;3647;48.792;9.802;2024-03-07T06:16:56;37.20;;;18.17;;
7211;SDS011;3647;48.792;9.802;2024-03-07T06:19:24;39.53;;;20.53;;
7211;SDS011;3647;48.792;9.802;2024-03-07T06:21:51;37.80;;;18.73;;
7211;SDS011;3647;48.792;9.802;2024-03-07T06:24:19;40.03;;;18.70;;
7211;SDS011;3647;48.792;9.802;2024-03-07T06:26:48;41.53;;;19.43;;
7211;SDS011;3647;48.792;9.802;2024-03-07T06:29:24;37.67;;;19.67;;
7211;SDS011;3647;48.792;9.802;2024-03-07T06:31:52;41.00;;;18.70;;
7211;SDS011;3647;48.792;9.802;2024-03-07T06:34:19;37.47;;;17.90;;
7211;SDS011;3647;48.792;9.802;2024-03-07T06:36:47;38.70;;;20.40;;
7211;SDS011;3647;48.792;9.802;2024-03-07T06:39:14;39.63;;;19.17;;
7211;SDS011;3647;48.792;9.802;2024-03-07T06:41:41;43.00;;;19.17;;
7211;SDS011;3647;48.792;9.802;2024-03-07T06:44:12;37.37;;;19.13;;
7211;SDS011;3647;48.792;9.802;2024-03-07T06:46:39;37.17;;;17.53;;
7211;SDS011;3647;48.792;9.802;2024-03-07T06:49:06;34.90;;;17.90;;
7211;SDS011;3647;48.792;9.802;2024-03-07T06:51:35;42.63;;;19.33;;
7211;SDS011;3647;48.792;9.802;2024-03-07T06:54:02;46.27;;;20.23;;
7211;SDS011;3647;48.792;9.802;2024-03-07T06:56:31;36.20;;;19.00;;
7211;SDS011;3647;48.792;9.802;2024-03-07T06:58:58;40.63;;;19.13;;
7211;SDS011;3647;48.792;9.802;2024-03-07T07:01:30;40.00;;;19.93;;
7211;SDS011;3647;48.792;9.802;2024-03-07T07:03:58;46.03;;;20.70;;
7211;SDS011;3647;48.792;9.802;2024-03-07T07:06:28;41.77;;;19.73;;
7211;SDS011;3647;48.792;9.802;2024-03-07T07:08:56;40.17;;;20.80;;
7211;SDS011;3647;48.792;9.802;2024-03-07T07:11:27;50.93;;;26.57;;
7211;SDS011;3647;48.792;9.802;2024-03-07T07:13:55;42.77;;;21.47;;
7211;SDS011;3647;48.792;9.802;2024-03-07T07:16:22;37.33;;;19.53;;
7211;SDS011;3647;48.792;9.802;2024-03-07T07:18:51;38.13;;;19.07;;
7211;SDS011;3647;48.792;9.802;2024-03-07T07:21:18;41.13;;;20.53;;
7211;SDS011;3647;48.792;9.802;2024-03-07T07:23:46;41.67;;;21.30;;
7211;SDS011;3647;48.792;9.802;2024-03-07T07:26:13;35.20;;;20.20;;
7211;SDS011;3647;48.792;9.802;2024-03-07T07:28:40;50.27;;;22.17;;
7211;SDS011;3647;48.792;9.802;2024-03-07T07:31:07;48.17;;;21.30;;
7211;SDS011;3647;48.792;9.802;2024-03-07T07:33:35;45.80;;;21.57;;
7211;SDS011;3647;48.792;9.802;2024-03-07T07:36:03;40.13;;;19.53;;
7211;SDS011;3647;48.792;9.802;2024-03-07T07:38:31;35.97;;;18.33;;
7211;SDS011;3647;48.792;9.802;2024-03-07T07:40:58;33.13;;;17.60;;
7211;SDS011;3647;48.792;9.802;2024-03-07T07:43:26;35.00;;;19.13;;
7211;SDS011;3647;48.792;9.802;2024-03-07T07:45:53;37.60;;;20.30;;
7211;SDS011;3647;48.792;9.802;2024-03-07T07:48:20;37.03;;;18.60;;
7211;SDS011;3647;48.792;9.802;2024-03-07T07:50:48;39.83;;;19.33;;
7211;SDS011;3647;48.792;9.802;2024-03-07T07:53:17;35.60;;;19.50;;
7211;SDS011;3647;48.792;9.802;2024-03-07T07:55:44;34.83;;;17.77;;
7211;SDS011;3647;48.792;9.802;2024-03-07T07:58:11;37.67;;;18.60;;
7211;SDS011;3647;48.792;9.802;2024-03-07T08:00:38;31.30;;;16.40;;
7211;SDS011;3647;48.792;9.802;2024-03-07T08:03:08;31.90;;;17.00;;
7211;SDS011;3647;48.792;9.802;2024-03-07T08:05:36;36.60;;;17.30;;
7211;SDS011;3647;48.792;9.802;2024-03-07T08:08:04;30.50;;;15.93;;
7211;SDS011;3647;48.792;9.802;2024-03-07T08:10:34;30.87;;;16.40;;
7211;SDS011;3647;48.792;9.802;2024-03-07T08:13:02;41.70;;;17.67;;
7211;SDS011;3647;48.792;9.802;2024-03-07T08:15:31;31.60;;;17.40;;
7211;SDS011;3647;48.792;9.802;2024-03-07T08:17:58;35.23;;;18.50;;
7211;SDS011;3647;48.792;9.802;2024-03-07T08:20:26;41.27;;;18.53;;
7211;SDS011;3647;48.792;9.802;2024-03-07T08:22:54;34.70;;;18.50;;
7211;SDS011;3647;48.792;9.802;2024-03-07T08:25:22;34.10;;;18.10;;
7211;SDS011;3647;48.792;9.802;2024-03-07T08:27:52;34.57;;;16.80;;
7211;SDS011;3647;48.792;9.802;2024-03-07T08:30:20;34.00;;;18.57;;
7211;SDS011;3647;48.792;9.802;2024-03-07T08:32:48;37.67;;;18.67;;
7211;SDS011;3647;48.792;9.802;2024-03-07T08:35:16;35.83;;;19.77;;
7211;SDS011;3647;48.792;9.802;2024-03-07T08:37:45;34.20;;;18.07;;
7211;SDS011;3647;48.792;9.802;2024-03-07T08:40:14;34.07;;;18.50;;
7211;SDS011;3647;48.792;9.802;2024-03-07T08:42:46;34.77;;;18.90;;
7211;SDS011;3647;48.792;9.802;2024-03-07T08:45:15;33.63;;;17.60;;
7211;SDS011;3647;48.792;9.802;2024-03-07T08:47:44;31.23;;;18.00;;
7211;SDS011;3647;48.792;9.802;2024-03-07T08:50:11;28.23;;;15.93;;
7211;SDS011;3647;48.792;9.802;2024-03-07T08:52:39;30.57;;;17.40;;
7211;SDS011;3647;48.792;9.802;2024-03-07T08:55:08;33.07;;;18.30;;
7211;SDS011;3647;48.792;9.802;2024-03-07T08:57:36;32.13;;;17.50;;
7211;SDS011;3647;48.792;9.802;2024-03-07T09:00:04;35.60;;;18.07;;
7211;SDS011;3647;48.792;9.802;2024-03-07T09:02:36;40.40;;;19.27;;
7211;SDS011;3647;48.792;9.802;2024-03-07T09:05:04;34.00;;;17.93;;
7211;SDS011;3647;48.792;9.802;2024-03-07T09:07:31;34.10;;;18.83;;
7211;SDS011;3647;48.792;9.802;2024-03-07T09:09:58;34.47;;;18.40;;
7211;SDS011;3647;48.792;9.802;2024-03-07T09:12:26;30.60;;;17.20;;
7211;SDS011;3647;48.792;9.802;2024-03-07T09:14:53;30.13;;;17.50;;
7211;SDS011;3647;48.792;9.802;2024-03-07T09:17:21;29.83;;;17.03;;
7211;SDS011;3647;48.792;9.802;2024-03-07T09:19:49;36.67;;;18.87;;
7211;SDS011;3647;48.792;9.802;2024-03-07T09:22:16;31.33;;;18.03;;
7211;SDS011;3647;48.792;9.802;2024-03-07T09:24:43;37.97;;;20.20;;
7211;SDS011;3647;48.792;9.802;2024-03-07T09:27:10;33.70;;;18.30;;
7211;SDS011;3647;48.792;9.802;2024-03-07T09:29:38;32.83;;;18.53;;
7211;SDS011;3647;48.792;9.802;2024-03-07T09:32:06;35.97;;;18.60;;
7211;SDS011;3647;48.792;9.802;2024-03-07T09:34:34;34.73;;;19.17;;
7211;SDS011;3647;48.792;9.802;2024-03-07T09:37:03;35.40;;;18.83;;
7211;SDS011;3647;48.792;9.802;2024-03-07T09:39:32;38.93;;;19.53;;
7211;SDS011;3647;48.792;9.802;2024-03-07T09:42:00;31.20;;;18.57;;
7211;SDS011;3647;48.792;9.802;2024-03-07T09:44:26;37.50;;;18.73;;
7211;SDS011;3647;48.792;9.802;2024-03-07T09:46:56;37.47;;;20.40;;
7211;SDS011;3647;48.792;9.802;2024-03-07T09:49:24;34.10;;;18.33;;
7211;SDS011;3647;48.792;9.802;2024-03-07T09:51:51;35.57;;;19.63;;
7211;SDS011;3647;48.792;9.802;2024-03-07T09:54:21;36.13;;;19.83;;
7211;SDS011;3647;48.792;9.802;2024-03-07T09:56:49;33.97;;;19.03;;
7211;SDS011;3647;48.792;9.802;2024-03-07T09:59:18;35.97;;;17.90;;
7211;SDS011;3647;48.792;9.802;2024-03-07T10:01:47;33.03;;;17.53;;
7211;SDS011;3647;48.792;9.802;2024-03-07T10:04:19;37.83;;;19.50;;
7211;SDS011;3647;48.792;9.802;2024-03-07T10:06:55;36.53;;;21.00;;
7211;SDS011;3647;48.792;9.802;2024-03-07T10:09:23;37.47;;;19.40;;
7211;SDS011;3647;48.792;9.802;2024-03-07T10:11:57;37.73;;;19.87;;
7211;SDS011;3647;48.792;9.802;2024-03-07T10:14:24;40.80;;;21.97;;
7211;SDS011;3647;48.792;9.802;2024-03-07T10:16:53;34.53;;;18.60;;
7211;SDS011;3647;48.792;9.802;2024-03-07T10:19:21;34.83;;;18.40;;
7211;SDS011;3647;48.792;9.802;2024-03-07T10:21:49;37.83;;;19.73;;
7211;SDS011;3647;48.792;9.802;2024-03-07T10:24:17;34.37;;;19.53;;
7211;SDS011;3647;48.792;9.802;2024-03-07T10:26:51;40.77;;;20.23;;
7211;SDS011;3647;48.792;9.802;2024-03-07T10:29:18;34.90;;;20.33;;
7211;SDS011;3647;48.792;9.802;2024-03-07T10:31:46;38.10;;;19.23;;
7211;SDS011;3647;48.792;9.802;2024-03-07T10:34:13;34.77;;;19.47;;
7211;SDS011;3647;48.792;9.802;2024-03-07T10:36:42;32.60;;;17.13;;
7211;SDS011;3647;48.792;9.802;2024-03-07T10:39:09;35.27;;;19.20;;
7211;SDS011;3647;48.792;9.802;2024-03-07T10:41:40;34.40;;;18.37;;
7211;SDS011;3647;48.792;9.802;2024-03-07T10:44:17;32.43;;;17.87;;
7211;SDS011;3647;48.792;9.802;2024-03-07T10:46:50;30.50;;;17.10;;
7211;SDS011;3647;48.792;9.802;2024-03-07T10:49:19;35.27;;;18.30;;
7211;SDS011;3647;48.792;9.802;2024-03-07T10:51:51;38.97;;;18.77;;
7211;SDS011;3647;48.792;9.802;2024-03-07T10:54:28;33.97;;;17.37;;
7211;SDS011;3647;48.792;9.802;2024-03-07T10:57:05;36.93;;;19.80;;
7211;SDS011;3647;48.792;9.802;2024-03-07T10:59:50;33.20;;;18.27;;
7211;SDS011;3647;48.792;9.802;2024-03-07T11:02:24;29.73;;;17.23;;
7211;SDS011;3647;48.792;9.802;2024-03-07T11:05:00;31.87;;;17.37;;
7211;SDS011;3647;48.792;9.802;2024-03-07T11:07:30;30.97;;;17.27;;
7211;SDS011;3647;48.792;9.802;2024-03-07T11:09:57;33.57;;;18.20;;
7211;SDS011;3647;48.792;9.802;2024-03-07T11:12:26;32.10;;;18.17;;
7211;SDS011;3647;48.792;9.802;2024-03-07T11:14:56;31.43;;;17.53;;
7211;SDS011;3647;48.792;9.802;2024-03-07T11:17:23;32.50;;;17.30;;
7211;SDS011;3647;48.792;9.802;2024-03-07T11:19:51;29.53;;;17.93;;
7211;SDS011;3647;48.792;9.802;2024-03-07T11:22:28;30.03;;;17.03;;
7211;SDS011;3647;48.792;9.802;2024-03-07T11:25:01;32.70;;;18.20;;
7211;SDS011;3647;48.792;9.802;2024-03-07T11:27:32;34.53;;;19.23;;
7211;SDS011;3647;48.792;9.802;2024-03-07T11:30:05;34.83;;;18.50;;
7211;SDS011;3647;48.792;9.802;2024-03-07T11:32:34;34.43;;;17.27;;
7211;SDS011;3647;48.792;9.802;2024-03-07T11:35:03;36.53;;;19.60;;
7211;SDS011;3647;48.792;9.802;2024-03-07T11:37:39;29.40;;;17.50;;
7211;SDS011;3647;48.792;9.802;2024-03-07T11:40:09;34.20;;;19.37;;
7211;SDS011;3647;48.792;9.802;2024-03-07T11:42:43;37.93;;;18.67;;
7211;SDS011;3647;48.792;9.802;2024-03-07T11:45:14;33.57;;;20.30;;
7211;SDS011;3647;48.792;9.802;2024-03-07T11:47:50;37.50;;;20.33;;
7211;SDS011;3647;48.792;9.802;2024-03-07T11:50:22;31.63;;;17.90;;
7211;SDS011;3647;48.792;9.802;2024-03-07T11:52:51;38.33;;;19.30;;
7211;SDS011;3647;48.792;9.802;2024-03-07T11:55:19;34.20;;;18.63;;
7211;SDS011;3647;48.792;9.802;2024-03-07T11:57:47;28.77;;;18.37;;
7211;SDS011;3647;48.792;9.802;2024-03-07T12:00:17;29.07;;;17.73;;
7211;SDS011;3647;48.792;9.802;2024-03-07T12:02:45;38.23;;;19.40;;
7211;SDS011;3647;48.792;9.802;2024-03-07T12:05:13;36.00;;;18.83;;
7211;SDS011;3647;48.792;9.802;2024-03-07T12:07:42;34.97;;;19.43;;
7211;SDS011;3647;48.792;9.802;2024-03-07T12:10:09;35.80;;;20.67;;
7211;SDS011;3647;48.792;9.802;2024-03-07T12:12:36;38.17;;;20.40;;
7211;SDS011;3647;48.792;9.802;2024-03-07T12:15:04;36.03;;;21.33;;
7211;SDS011;3647;48.792;9.802;2024-03-07T12:17:38;36.97;;;18.53;;
7211;SDS011;3647;48.792;9.802;2024-03-07T12:20:06;35.60;;;19.50;;
7211;SDS011;3647;48.792;9.802;2024-03-07T12:22:49;42.03;;;20.07;;
7211;SDS011;3647;48.792;9.802;2024-03-07T12:25:18;38.77;;;19.43;;
7211;SDS011;3647;48.792;9.802;2024-03-07T12:27:46;33.90;;;18.77;;
7211;SDS011;3647;48.792;9.802;2024-03-07T12:30:16;38.73;;;19.37;;
7211;SDS011;3647;48.792;9.802;2024-03-07T12:32:48;37.13;;;19.90;;
7211;SDS011;3647;48.792;9.802;2024-03-07T12:35:15;35.50;;;19.53;;
7211;SDS011;3647;48.792;9.802;2024-03-07T12:37:43;37.20;;;19.87;;
7211;SDS011;3647;48.792;9.802;2024-03-07T12:40:11;36.73;;;19.00;;
7211;SDS011;3647;48.792;9.802;2024-03-07T12:42:45;39.87;;;19.77;;
7211;SDS011;3647;48.792;9.802;2024-03-07T12:45:12;34.97;;;18.80;;
7211;SDS011;3647;48.792;9.802;2024-03-07T12:47:42;35.83;;;19.13;;
7211;SDS011;3647;48.792;9.802;2024-03-07T12:50:11;33.77;;;18.43;;
7211;SDS011;3647;48.792;9.802;2024-03-07T12:52:38;36.43;;;18.97;;
7211;SDS011;3647;48.792;9.802;2024-03-07T12:55:06;36.47;;;19.13;;
7211;SDS011;3647;48.792;9.802;2024-03-07T12:57:33;38.13;;;19.27;;
7211;SDS011;3647;48.792;9.802;2024-03-07T13:00:05;34.53;;;18.40;;
7211;SDS011;3647;48.792;9.802;2024-03-07T13:02:43;41.93;;;20.00;;
7211;SDS011;3647;48.792;9.802;2024-03-07T13:05:12;33.63;;;17.83;;
7211;SDS011;3647;48.792;9.802;2024-03-07T13:07:44;34.00;;;19.53;;
7211;SDS011;3647;48.792;9.802;2024-03-07T13:10:13;36.77;;;18.97;;
7211;SDS011;3647;48.792;9.802;2024-03-07T13:12:41;30.97;;;17.13;;
7211;SDS011;3647;48.792;9.802;2024-03-07T13:15:10;33.70;;;19.53;;
7211;SDS011;3647;48.792;9.802;2024-03-07T13:17:37;38.43;;;18.93;;
7211;SDS011;3647;48.792;9.802;2024-03-07T13:20:04;31.70;;;17.53;;
7211;SDS011;3647;48.792;9.802;2024-03-07T13:22:38;29.73;;;16.20;;
7211;SDS011;3647;48.792;9.802;2024-03-07T13:25:07;33.03;;;17.03;;
7211;SDS011;3647;48.792;9.802;2024-03-07T13:27:39;31.17;;;16.13;;
7211;SDS011;3647;48.792;9.802;2024-03-07T13:30:09;35.20;;;18.23;;
7211;SDS011;3647;48.792;9.802;2024-03-07T13:32:48;30.30;;;16.20;;
7211;SDS011;3647;48.792;9.802;2024-03-07T13:35:16;31.47;;;16.20;;
7211;SDS011;3647;48.792;9.802;2024-03-07T13:37:47;25.60;;;13.97;;
7211;SDS011;3647;48.792;9.802;2024-03-07T13:40:14;26.10;;;15.17;;
7211;SDS011;3647;48.792;9.802;2024-03-07T13:42:51;25.03;;;14.10;;
7211;SDS011;3647;48.792;9.802;2024-03-07T13:45:20;26.37;;;14.37;;
7211;SDS011;3647;48.792;9.802;2024-03-07T13:47:48;28.80;;;15.43;;
7211;SDS011;3647;48.792;9.802;2024-03-07T13:50:17;36.87;;;16.30;;
7211;SDS011;3647;48.792;9.802;2024-03-07T13:52:48;28.83;;;16.60;;
7211;SDS011;3647;48.792;9.802;2024-03-07T13:58:24;28.70;;;15.53;;
7211;SDS011;3647;48.792;9.802;2024-03-07T14:01:17;30.27;;;16.57;;
7211;SDS011;3647;48.792;9.802;2024-03-07T14:04:07;28.93;;;15.83;;
7211;SDS011;3647;48.792;9.802;2024-03-07T14:07:05;25.03;;;14.63;;
7211;SDS011;3647;48.792;9.802;2024-03-07T14:12:56;27.57;;;14.50;;
7211;SDS011;3647;48.792;9.802;2024-03-07T14:16:12;23.90;;;14.23;;
7211;SDS011;3647;48.792;9.802;2024-03-07T14:22:17;30.03;;;15.33;;
7211;SDS011;3647;48.792;9.802;2024-03-07T14:25:07;25.90;;;13.83;;
7211;SDS011;3647;48.792;9.802;2024-03-07T14:27:53;21.03;;;12.77;;
7211;SDS011;3647;48.792;9.802;2024-03-07T14:30:39;24.23;;;13.93;;
7211;SDS011;3647;48.792;9.802;2024-03-07T14:33:09;22.27;;;13.40;;
7211;SDS011;3647;48.792;9.802;2024-03-07T14:35:57;26.93;;;13.90;;
7211;SDS011;3647;48.792;9.802;2024-03-07T14:38:30;24.20;;;14.33;;
7211;SDS011;3647;48.792;9.802;2024-03-07T14:41:08;26.83;;;13.83;;
7211;SDS011;3647;48.792;9.802;2024-03-07T14:43:39;24.20;;;14.50;;
7211;SDS011;3647;48.792;9.802;2024-03-07T14:46:08;26.10;;;13.60;;
7211;SDS011;3647;48.792;9.802;2024-03-07T14:48:37;23.00;;;12.73;;
7211;SDS011;3647;48.792;9.802;2024-03-07T14:51:06;24.77;;;14.47;;
7211;SDS011;3647;48.792;9.802;2024-03-07T14:53:34;28.43;;;14.33;;
7211;SDS011;3647;48.792;9.802;2024-03-07T14:56:02;24.37;;;14.40;;
7211;SDS011;3647;48.792;9.802;2024-03-07T14:58:30;27.70;;;15.00;;
7211;SDS011;3647;48.792;9.802;2024-03-07T15:00:58;27.93;;;14.77;;
7211;SDS011;3647;48.792;9.802;2024-03-07T15:03:25;25.27;;;14.53;;
7211;SDS011;3647;48.792;9.802;2024-03-07T15:05:54;30.87;;;14.73;;
7211;SDS011;3647;48.792;9.802;2024-03-07T15:08:21;22.73;;;14.17;;
7211;SDS011;3647;48.792;9.802;2024-03-07T15:10:51;24.67;;;13.90;;
7211;SDS011;3647;48.792;9.802;2024-03-07T15:13:22;25.30;;;14.53;;
7211;SDS011;3647;48.792;9.802;2024-03-07T15:15:49;27.37;;;14.33;;
7211;SDS011;3647;48.792;9.802;2024-03-07T15:18:17;25.23;;;14.37;;
7211;SDS011;3647;48.792;9.802;2024-03-07T15:20:44;27.83;;;13.87;;
7211;SDS011;3647;48.792;9.802;2024-03-07T15:23:12;23.90;;;13.97;;
7211;SDS011;3647;48.792;9.802;2024-03-07T15:25:38;20.77;;;13.77;;
7211;SDS011;3647;48.792;9.802;2024-03-07T15:28:05;25.03;;;13.93;;
7211;SDS011;3647;48.792;9.802;2024-03-07T15:30:32;22.90;;;13.97;;
7211;SDS011;3647;48.792;9.802;2024-03-07T15:33:01;22.00;;;12.53;;
7211;SDS011;3647;48.792;9.802;2024-03-07T15:35:30;22.33;;;13.10;;
7211;SDS011;3647;48.792;9.802;2024-03-07T15:37:57;23.20;;;13.17;;
7211;SDS011;3647;48.792;9.802;2024-03-07T15:40:24;24.67;;;13.30;;
7211;SDS011;3647;48.792;9.802;2024-03-07T15:42:52;23.27;;;12.80;;
7211;SDS011;3647;48.792;9.802;2024-03-07T15:45:21;21.83;;;12.77;;
7211;SDS011;3647;48.792;9.802;2024-03-07T15:47:50;19.50;;;10.90;;
7211;SDS011;3647;48.792;9.802;2024-03-07T15:50:18;21.30;;;12.07;;
7211;SDS011;3647;48.792;9.802;2024-03-07T15:52:47;20.07;;;10.90;;
7211;SDS011;3647;48.792;9.802;2024-03-07T15:55:17;21.13;;;12.90;;
7211;SDS011;3647;48.792;9.802;2024-03-07T15:57:44;21.93;;;12.13;;
7211;SDS011;3647;48.792;9.802;2024-03-07T16:00:14;19.67;;;12.27;;
7211;SDS011;3647;48.792;9.802;2024-03-07T16:02:52;25.27;;;13.27;;
7211;SDS011;3647;48.792;9.802;2024-03-07T16:05:20;19.00;;;12.67;;
7211;SDS011;3647;48.792;9.802;2024-03-07T16:07:50;21.03;;;11.53;;
7211;SDS011;3647;48.792;9.802;2024-03-07T16:10:17;20.43;;;11.60;;
7211;SDS011;3647;48.792;9.802;2024-03-07T16:12:45;22.50;;;13.53;;
7211;SDS011;3647;48.792;9.802;2024-03-07T16:15:12;21.67;;;12.43;;
7211;SDS011;3647;48.792;9.802;2024-03-07T16:17:40;21.47;;;13.03;;
7211;SDS011;3647;48.792;9.802;2024-03-07T16:20:10;23.90;;;13.03;;
7211;SDS011;3647;48.792;9.802;2024-03-07T16:22:41;21.40;;;12.23;;
7211;SDS011;3647;48.792;9.802;2024-03-07T16:25:11;20.43;;;12.00;;
7211;SDS011;3647;48.792;9.802;2024-03-07T16:27:40;17.90;;;12.37;;
7211;SDS011;3647;48.792;9.802;2024-03-07T16:30:08;21.83;;;11.87;;
7211;SDS011;3647;48.792;9.802;2024-03-07T16:32:38;20.10;;;11.47;;
7211;SDS011;3647;48.792;9.802;2024-03-07T16:35:06;23.70;;;13.13;;
7211;SDS011;3647;48.792;9.802;2024-03-07T16:37:36;21.93;;;12.43;;
7211;SDS011;3647;48.792;9.802;2024-03-07T16:40:05;23.63;;;13.33;;
7211;SDS011;3647;48.792;9.802;2024-03-07T16:42:36;21.97;;;12.97;;
7211;SDS011;3647;48.792;9.802;2024-03-07T16:45:06;20.23;;;12.87;;
7211;SDS011;3647;48.792;9.802;2024-03-07T16:47:36;18.63;;;12.27;;
7211;SDS011;3647;48.792;9.802;2024-03-07T16:50:04;22.63;;;13.20;;
7211;SDS011;3647;48.792;9.802;2024-03-07T16:52:33;20.80;;;12.37;;
7211;SDS011;3647;48.792;9.802;2024-03-07T16:55:01;22.13;;;12.13;;
7211;SDS011;3647;48.792;9.802;2024-03-07T16:57:28;25.57;;;12.97;;
7211;SDS011;3647;48.792;9.802;2024-03-07T16:59:58;20.53;;;12.30;;
7211;SDS011;3647;48.792;9.802;2024-03-07T17:02:27;20.37;;;12.73;;
7211;SDS011;3647;48.792;9.802;2024-03-07T17:04:54;20.80;;;12.23;;
7211;SDS011;3647;48.792;9.802;2024-03-07T17:07:22;23.80;;;13.27;;
7211;SDS011;3647;48.792;9.802;2024-03-07T17:09:49;21.43;;;12.73;;
7211;SDS011;3647;48.792;9.802;2024-03-07T17:12:17;18.57;;;11.10;;
7211;SDS011;3647;48.792;9.802;2024-03-07T17:14:44;19.80;;;11.77;;
7211;SDS011;3647;48.792;9.802;2024-03-07T17:17:12;20.50;;;11.63;;
7211;SDS011;3647;48.792;9.802;2024-03-07T17:19:40;20.87;;;12.87;;
7211;SDS011;3647;48.792;9.802;2024-03-07T17:22:08;20.70;;;12.60;;
7211;SDS011;3647;48.792;9.802;2024-03-07T17:24:35;24.03;;;13.00;;
7211;SDS011;3647;48.792;9.802;2024-03-07T17:27:04;20.00;;;12.70;;
7211;SDS011;3647;48.792;9.802;2024-03-07T17:29:31;23.97;;;12.83;;
7211;SDS011;3647;48.792;9.802;2024-03-07T17:31:59;21.17;;;12.90;;
7211;SDS011;3647;48.792;9.802;2024-03-07T17:34:27;22.67;;;11.80;;
7211;SDS011;3647;48.792;9.802;2024-03-07T17:36:55;23.70;;;12.67;;
7211;SDS011;3647;48.792;9.802;2024-03-07T17:39:23;24.23;;;12.90;;
7211;SDS011;3647;48.792;9.802;2024-03-07T17:41:50;24.53;;;12.57;;
7211;SDS011;3647;48.792;9.802;2024-03-07T17:44:18;20.03;;;12.87;;
7211;SDS011;3647;48.792;9.802;2024-03-07T17:46:46;22.33;;;12.80;;
7211;SDS011;3647;48.792;9.802;2024-03-07T17:49:14;21.87;;;12.57;;
7211;SDS011;3647;48.792;9.802;2024-03-07T17:51:44;23.83;;;14.03;;
7211;SDS011;3647;48.792;9.802;2024-03-07T17:54:11;20.10;;;11.70;;
7211;SDS011;3647;48.792;9.802;2024-03-07T17:56:40;24.30;;;14.37;;
7211;SDS011;3647;48.792;9.802;2024-03-07T17:59:09;21.00;;;12.00;;
7211;SDS011;3647;48.792;9.802;2024-03-07T18:01:38;21.70;;;12.60;;
7211;SDS011;3647;48.792;9.802;2024-03-07T18:04:07;21.17;;;12.60;;
7211;SDS011;3647;48.792;9.802;2024-03-07T18:06:34;22.47;;;12.67;;
7211;SDS011;3647;48.792;9.802;2024-03-07T18:09:02;22.20;;;12.40;;
7211;SDS011;3647;48.792;9.802;2024-03-07T18:11:36;22.80;;;12.57;;
7211;SDS011;3647;48.792;9.802;2024-03-07T18:14:03;23.33;;;13.33;;
7211;SDS011;3647;48.792;9.802;2024-03-07T18:16:31;22.47;;;12.47;;
7211;SDS011;3647;48.792;9.802;2024-03-07T18:18:59;21.93;;;12.53;;
7211;SDS011;3647;48.792;9.802;2024-03-07T18:21:25;21.87;;;12.60;;
7211;SDS011;3647;48.792;9.802;2024-03-07T18:23:54;18.73;;;12.63;;
7211;SDS011;3647;48.792;9.802;2024-03-07T18:26:23;22.73;;;12.23;;
7211;SDS011;3647;48.792;9.802;2024-03-07T18:28:50;22.60;;;12.77;;
7211;SDS011;3647;48.792;9.802;2024-03-07T18:31:18;19.93;;;12.00;;
7211;SDS011;3647;48.792;9.802;2024-03-07T18:33:52;24.03;;;11.93;;
7211;SDS011;3647;48.792;9.802;2024-03-07T18:36:19;21.90;;;12.47;;
7211;SDS011;3647;48.792;9.802;2024-03-07T18:38:47;22.17;;;12.13;;
7211;SDS011;3647;48.792;9.802;2024-03-07T18:41:15;23.20;;;12.60;;
7211;SDS011;3647;48.792;9.802;2024-03-07T18:43:43;24.40;;;13.03;;
7211;SDS011;3647;48.792;9.802;2024-03-07T18:46:10;22.30;;;13.23;;
7211;SDS011;3647;48.792;9.802;2024-03-07T18:48:37;19.67;;;12.03;;
7211;SDS011;3647;48.792;9.802;2024-03-07T18:51:04;23.40;;;12.97;;
7211;SDS011;3647;48.792;9.802;2024-03-07T18:53:33;25.77;;;12.87;;
7211;SDS011;3647;48.792;9.802;2024-03-07T18:56:00;20.97;;;12.30;;
7211;SDS011;3647;48.792;9.802;2024-03-07T18:58:34;21.63;;;12.30;;
7211;SDS011;3647;48.792;9.802;2024-03-07T19:01:04;21.30;;;12.17;;
7211;SDS011;3647;48.792;9.802;2024-03-07T19:03:32;23.47;;;13.27;;
7211;SDS011;3647;48.792;9.802;2024-03-07T19:06:00;18.17;;;12.03;;
7211;SDS011;3647;48.792;9.802;2024-03-07T19:08:27;20.97;;;13.33;;
7211;SDS011;3647;48.792;9.802;2024-03-07T19:10:55;21.97;;;12.77;;
7211;SDS011;3647;48.792;9.802;2024-03-07T19:13:24;21.23;;;12.13;;
7211;SDS011;3647;48.792;9.802;2024-03-07T19:15:57;23.53;;;12.63;;
7211;SDS011;3647;48.792;9.802;2024-03-07T19:18:26;22.27;;;12.90;;
7211;SDS011;3647;48.792;9.802;2024-03-07T19:20:53;22.17;;;13.33;;
7211;SDS011;3647;48.792;9.802;2024-03-07T19:23:20;22.07;;;14.13;;
7211;SDS011;3647;48.792;9.802;2024-03-07T19:25:49;20.40;;;13.37;;
7211;SDS011;3647;48.792;9.802;2024-03-07T19:28:16;20.87;;;12.23;;
7211;SDS011;3647;48.792;9.802;2024-03-07T19:30:43;23.23;;;12.33;;
7211;SDS011;3647;48.792;9.802;2024-03-07T19:33:11;17.80;;;12.37;;
7211;SDS011;3647;48.792;9.802;2024-03-07T19:35:43;21.10;;;11.20;;
7211;SDS011;3647;48.792;9.802;2024-03-07T19:38:11;24.90;;;14.17;;
7211;SDS011;3647;48.792;9.802;2024-03-07T19:40:38;22.23;;;12.23;;
7211;SDS011;3647;48.792;9.802;2024-03-07T19:43:05;22.03;;;12.27;;
7211;SDS011;3647;48.792;9.802;2024-03-07T19:45:32;22.87;;;13.20;;
7211;SDS011;3647;48.792;9.802;2024-03-07T19:48:01;23.67;;;12.63;;
7211;SDS011;3647;48.792;9.802;2024-03-07T19:50:28;23.13;;;12.63;;
7211;SDS011;3647;48.792;9.802;2024-03-07T19:52:58;22.47;;;12.07;;
7211;SDS011;3647;48.792;9.802;2024-03-07T19:55:25;22.20;;;13.07;;
7211;SDS011;3647;48.792;9.802;2024-03-07T19:57:55;20.33;;;12.37;;
7211;SDS011;3647;48.792;9.802;2024-03-07T20:00:23;23.53;;;13.13;;
7211;SDS011;3647;48.792;9.802;2024-03-07T20:02:54;23.70;;;13.50;;
7211;SDS011;3647;48.792;9.802;2024-03-07T20:05:21;24.33;;;13.20;;
7211;SDS011;3647;48.792;9.802;2024-03-07T20:07:51;23.20;;;12.37;;
7211;SDS011;3647;48.792;9.802;2024-03-07T20:10:20;22.23;;;13.27;;
7211;SDS011;3647;48.792;9.802;2024-03-07T20:12:48;24.03;;;13.00;;
7211;SDS011;3647;48.792;9.802;2024-03-07T20:15:16;23.13;;;13.40;;
7211;SDS011;3647;48.792;9.802;2024-03-07T20:17:44;24.30;;;13.33;;
7211;SDS011;3647;48.792;9.802;2024-03-07T20:20:13;21.80;;;11.77;;
7211;SDS011;3647;48.792;9.802;2024-03-07T20:22:41;22.20;;;13.53;;
7211;SDS011;3647;48.792;9.802;2024-03-07T20:25:09;19.83;;;11.00;;
7211;SDS011;3647;48.792;9.802;2024-03-07T20:27:40;19.67;;;12.77;;
7211;SDS011;3647;48.792;9.802;2024-03-07T20:30:07;22.27;;;12.23;;
7211;SDS011;3647;48.792;9.802;2024-03-07T20:32:35;23.77;;;12.60;;
7211;SDS011;3647;48.792;9.802;2024-03-07T20:35:02;21.10;;;12.13;;
7211;SDS011;3647;48.792;9.802;2024-03-07T20:37:33;23.77;;;12.93;;
7211;SDS011;3647;48.792;9.802;2024-03-07T20:40:00;23.17;;;12.33;;
7211;SDS011;3647;48.792;9.802;2024-03-07T20:42:30;18.87;;;12.20;;
7211;SDS011;3647;48.792;9.802;2024-03-07T20:44:59;20.53;;;11.60;;
7211;SDS011;3647;48.792;9.802;2024-03-07T20:47:26;22.30;;;11.27;;
7211;SDS011;3647;48.792;9.802;2024-03-07T20:49:54;22.77;;;13.00;;
7211;SDS011;3647;48.792;9.802;2024-03-07T20:52:22;25.20;;;11.67;;
7211;SDS011;3647;48.792;9.802;2024-03-07T20:54:49;27.33;;;13.87;;
7211;SDS011;3647;48.792;9.802;2024-03-07T20:57:16;23.10;;;12.73;;
7211;SDS011;3647;48.792;9.802;2024-03-07T20:59:44;25.87;;;12.67;;
7211;SDS011;3647;48.792;9.802;2024-03-07T21:02:12;20.77;;;11.90;;
7211;SDS011;3647;48.792;9.802;2024-03-07T21:04:39;27.37;;;13.70;;
7211;SDS011;3647;48.792;9.802;2024-03-07T21:07:06;19.17;;;11.87;;
7211;SDS011;3647;48.792;9.802;2024-03-07T21:09:33;20.50;;;11.67;;
7211;SDS011;3647;48.792;9.802;2024-03-07T21:12:02;19.20;;;11.57;;
7211;SDS011;3647;48.792;9.802;2024-03-07T21:14:30;25.53;;;11.53;;
7211;SDS011;3647;48.792;9.802;2024-03-07T21:16:57;23.20;;;13.33;;
7211;SDS011;3647;48.792;9.802;2024-03-07T21:19:25;24.27;;;13.43;;